sensor_id;sensor_type;location;lat;lon;timestamp;temperature;humidity
11264;DHT22;5689;48.798;9.070;2023-11-21T00:00:59;7.80;99.90
11264;DHT22;5689;48.798;9.070;2023-11-21T00:03:30;7.80;99.90
11264;DHT22;5689;48.798;9.070;2023-11-21T00:05:59;7.80;99.90
11264;DHT22;5689;48.798;9.070;2023-11-21T00:08:28;7.80;99.90
11264;DHT22;5689;48.798;9.070;2023-11-21T00:10:56;7.80;99.90
11264;DHT22;5689;48.798;9.070;2023-11-21T00:13:28;7.80;99.90
11264;DHT22;5689;48.798;9.070;2023-11-21T00:15:56;7.90;99.90
11264;DHT22;5689;48.798;9.070;2023-11-21T00:18:24;7.90;99.90
11264;DHT22;5689;48.798;9.070;2023-11-21T00:20:52;7.90;99.90
11264;DHT22;5689;48.798;9.070;2023-11-21T00:23:20;7.90;99.90
11264;DHT22;5689;48.798;9.070;2023-11-21T00:25:48;8.00;99.90
11264;DHT22;5689;48.798;9.070;2023-11-21T00:28:16;7.90;99.90
11264;DHT22;5689;48.798;9.070;2023-11-21T00:30:46;7.90;99.90
11264;DHT22;5689;48.798;9.070;2023-11-21T00:33:13;7.90;99.90
11264;DHT22;5689;48.798;9.070;2023-11-21T00:35:42;8.00;99.90
11264;DHT22;5689;48.798;9.070;2023-11-21T00:38:10;8.00;99.90
11264;DHT22;5689;48.798;9.070;2023-11-21T00:40:38;8.00;99.90
11264;DHT22;5689;48.798;9.070;2023-11-21T00:43:06;8.10;99.90
11264;DHT22;5689;48.798;9.070;2023-11-21T00:45:34;8.10;99.90
11264;DHT22;5689;48.798;9.070;2023-11-21T00:48:04;8.10;99.90
11264;DHT22;5689;48.798;9.070;2023-11-21T00:50:32;8.10;99.90
11264;DHT22;5689;48.798;9.070;2023-11-21T00:53:00;8.20;99.90
11264;DHT22;5689;48.798;9.070;2023-11-21T00:55:29;8.10;99.90
11264;DHT22;5689;48.798;9.070;2023-11-21T00:57:57;8.10;99.90
11264;DHT22;5689;48.798;9.070;2023-11-21T01:00:25;8.10;99.90
11264;DHT22;5689;48.798;9.070;2023-11-21T01:02:53;8.10;99.90
11264;DHT22;5689;48.798;9.070;2023-11-21T01:05:22;8.00;99.90
11264;DHT22;5689;48.798;9.070;2023-11-21T01:07:51;8.00;99.90
11264;DHT22;5689;48.798;9.070;2023-11-21T01:10:19;8.00;99.90
11264;DHT22;5689;48.798;9.070;2023-11-21T01:12:47;8.00;99.90
11264;DHT22;5689;48.798;9.070;2023-11-21T01:15:15;8.00;99.90
11264;DHT22;5689;48.798;9.070;2023-11-21T01:17:43;8.00;99.90
11264;DHT22;5689;48.798;9.070;2023-11-21T01:20:11;8.10;99.90
11264;DHT22;5689;48.798;9.070;2023-11-21T01:22:41;8.10;99.90
11264;DHT22;5689;48.798;9.070;2023-11-21T01:25:09;8.00;99.90
11264;DHT22;5689;48.798;9.070;2023-11-21T01:27:38;8.10;99.90
11264;DHT22;5689;48.798;9.070;2023-11-21T01:30:06;8.00;99.90
11264;DHT22;5689;48.798;9.070;2023-11-21T01:32:37;8.00;99.90
11264;DHT22;5689;48.798;9.070;2023-11-21T01:35:06;8.00;99.90
11264;DHT22;5689;48.798;9.070;2023-11-21T01:37:34;8.00;99.90
11264;DHT22;5689;48.798;9.070;2023-11-21T01:40:04;8.00;99.90
11264;DHT22;5689;48.798;9.070;2023-11-21T01:42:36;8.00;99.90
11264;DHT22;5689;48.798;9.070;2023-11-21T01:45:05;8.10;99.90
11264;DHT22;5689;48.798;9.070;2023-11-21T01:47:34;8.10;99.90
11264;DHT22;5689;48.798;9.070;2023-11-21T01:50:03;8.10;99.90
11264;DHT22;5689;48.798;9.070;2023-11-21T01:52:31;8.10;99.90
11264;DHT22;5689;48.798;9.070;2023-11-21T01:55:00;8.10;99.90
11264;DHT22;5689;48.798;9.070;2023-11-21T01:57:29;8.20;99.90
11264;DHT22;5689;48.798;9.070;2023-11-21T01:59:58;8.30;99.90
11264;DHT22;5689;48.798;9.070;2023-11-21T02:02:38;8.20;99.90
11264;DHT22;5689;48.798;9.070;2023-11-21T02:05:06;8.20;99.90
11264;DHT22;5689;48.798;9.070;2023-11-21T02:07:35;8.20;99.90
11264;DHT22;5689;48.798;9.070;2023-11-21T02:10:05;8.20;99.90
11264;DHT22;5689;48.798;9.070;2023-11-21T02:12:35;8.20;99.90
11264;DHT22;5689;48.798;9.070;2023-11-21T02:15:07;8.20;99.90
11264;DHT22;5689;48.798;9.070;2023-11-21T02:17:41;8.30;99.90
11264;DHT22;5689;48.798;9.070;2023-11-21T02:20:10;8.20;99.90
11264;DHT22;5689;48.798;9.070;2023-11-21T02:22:42;8.20;99.90
11264;DHT22;5689;48.798;9.070;2023-11-21T02:25:12;8.20;99.90
11264;DHT22;5689;48.798;9.070;2023-11-21T02:27:40;8.10;99.90
11264;DHT22;5689;48.798;9.070;2023-11-21T02:30:10;8.10;99.90
11264;DHT22;5689;48.798;9.070;2023-11-21T02:32:40;8.20;99.90
11264;DHT22;5689;48.798;9.070;2023-11-21T02:35:09;8.20;99.90
11264;DHT22;5689;48.798;9.070;2023-11-21T02:37:38;8.20;99.90
11264;DHT22;5689;48.798;9.070;2023-11-21T02:40:09;8.20;99.90
11264;DHT22;5689;48.798;9.070;2023-11-21T02:42:40;8.10;99.90
11264;DHT22;5689;48.798;9.070;2023-11-21T02:45:10;8.10;99.90
11264;DHT22;5689;48.798;9.070;2023-11-21T02:47:39;8.00;99.90
11264;DHT22;5689;48.798;9.070;2023-11-21T02:50:08;8.00;99.90
11264;DHT22;5689;48.798;9.070;2023-11-21T02:56:49;8.00;99.90
11264;DHT22;5689;48.798;9.070;2023-11-21T02:59:18;8.00;99.90
11264;DHT22;5689;48.798;9.070;2023-11-21T03:01:47;7.90;99.90
11264;DHT22;5689;48.798;9.070;2023-11-21T03:04:16;7.90;99.90
11264;DHT22;5689;48.798;9.070;2023-11-21T03:06:45;7.90;99.90
11264;DHT22;5689;48.798;9.070;2023-11-21T03:09:13;7.80;99.90
11264;DHT22;5689;48.798;9.070;2023-11-21T03:11:41;7.80;99.90
11264;DHT22;5689;48.798;9.070;2023-11-21T03:14:09;7.80;99.90
11264;DHT22;5689;48.798;9.070;2023-11-21T03:16:39;7.80;99.90
11264;DHT22;5689;48.798;9.070;2023-11-21T03:19:07;7.80;99.90
11264;DHT22;5689;48.798;9.070;2023-11-21T03:21:35;7.80;99.90
11264;DHT22;5689;48.798;9.070;2023-11-21T03:24:04;7.80;99.90
11264;DHT22;5689;48.798;9.070;2023-11-21T03:26:33;7.80;99.90
11264;DHT22;5689;48.798;9.070;2023-11-21T03:29:01;7.80;99.90
11264;DHT22;5689;48.798;9.070;2023-11-21T03:31:29;7.70;99.90
11264;DHT22;5689;48.798;9.070;2023-11-21T03:33:58;7.70;99.90
11264;DHT22;5689;48.798;9.070;2023-11-21T03:36:26;7.70;99.90
11264;DHT22;5689;48.798;9.070;2023-11-21T03:38:54;7.70;99.90
11264;DHT22;5689;48.798;9.070;2023-11-21T03:41:22;7.70;99.90
11264;DHT22;5689;48.798;9.070;2023-11-21T03:43:50;7.70;99.90
11264;DHT22;5689;48.798;9.070;2023-11-21T03:46:18;7.80;99.90
11264;DHT22;5689;48.798;9.070;2023-11-21T03:48:46;7.70;99.90
11264;DHT22;5689;48.798;9.070;2023-11-21T03:51:16;7.80;99.90
11264;DHT22;5689;48.798;9.070;2023-11-21T03:53:44;7.80;99.90
11264;DHT22;5689;48.798;9.070;2023-11-21T03:56:13;7.80;99.90
11264;DHT22;5689;48.798;9.070;2023-11-21T03:58:41;7.80;99.90
11264;DHT22;5689;48.798;9.070;2023-11-21T04:01:09;7.80;99.90
11264;DHT22;5689;48.798;9.070;2023-11-21T04:03:37;7.80;99.90
11264;DHT22;5689;48.798;9.070;2023-11-21T04:06:07;7.70;99.90
11264;DHT22;5689;48.798;9.070;2023-11-21T04:08:38;7.70;99.90
11264;DHT22;5689;48.798;9.070;2023-11-21T04:11:06;7.70;99.90
11264;DHT22;5689;48.798;9.070;2023-11-21T04:13:34;7.70;99.90
11264;DHT22;5689;48.798;9.070;2023-11-21T04:16:02;7.70;99.90
11264;DHT22;5689;48.798;9.070;2023-11-21T04:18:30;7.70;99.90
11264;DHT22;5689;48.798;9.070;2023-11-21T04:20:58;7.70;99.90
11264;DHT22;5689;48.798;9.070;2023-11-21T04:23:27;7.70;99.90
11264;DHT22;5689;48.798;9.070;2023-11-21T04:25:56;7.70;99.90
11264;DHT22;5689;48.798;9.070;2023-11-21T04:28:25;7.70;99.90
11264;DHT22;5689;48.798;9.070;2023-11-21T04:30:53;7.70;99.90
11264;DHT22;5689;48.798;9.070;2023-11-21T04:33:22;7.70;99.90
11264;DHT22;5689;48.798;9.070;2023-11-21T04:35:50;7.60;99.90
11264;DHT22;5689;48.798;9.070;2023-11-21T04:38:18;7.60;99.90
11264;DHT22;5689;48.798;9.070;2023-11-21T04:40:46;7.60;99.90
11264;DHT22;5689;48.798;9.070;2023-11-21T04:43:16;7.40;99.90
11264;DHT22;5689;48.798;9.070;2023-11-21T04:45:44;7.40;99.90
11264;DHT22;5689;48.798;9.070;2023-11-21T04:48:12;7.40;99.90
11264;DHT22;5689;48.798;9.070;2023-11-21T04:50:41;7.40;99.90
11264;DHT22;5689;48.798;9.070;2023-11-21T04:53:09;7.40;99.90
11264;DHT22;5689;48.798;9.070;2023-11-21T04:55:39;7.40;99.90
11264;DHT22;5689;48.798;9.070;2023-11-21T04:58:07;7.40;99.90
11264;DHT22;5689;48.798;9.070;2023-11-21T05:00:36;7.30;99.90
11264;DHT22;5689;48.798;9.070;2023-11-21T05:03:04;7.20;99.90
11264;DHT22;5689;48.798;9.070;2023-11-21T05:05:33;7.20;99.90
11264;DHT22;5689;48.798;9.070;2023-11-21T05:08:01;7.30;99.90
11264;DHT22;5689;48.798;9.070;2023-11-21T05:10:30;7.30;99.90
11264;DHT22;5689;48.798;9.070;2023-11-21T05:12:57;7.30;99.90
11264;DHT22;5689;48.798;9.070;2023-11-21T05:15:26;7.40;99.90
11264;DHT22;5689;48.798;9.070;2023-11-21T05:17:55;7.40;99.90
11264;DHT22;5689;48.798;9.070;2023-11-21T05:20:26;7.40;99.90
11264;DHT22;5689;48.798;9.070;2023-11-21T05:22:54;7.40;99.90
11264;DHT22;5689;48.798;9.070;2023-11-21T05:25:22;7.40;99.90
11264;DHT22;5689;48.798;9.070;2023-11-21T05:27:50;7.40;99.90
11264;DHT22;5689;48.798;9.070;2023-11-21T05:30:20;7.40;99.90
11264;DHT22;5689;48.798;9.070;2023-11-21T05:32:49;7.40;99.90
11264;DHT22;5689;48.798;9.070;2023-11-21T05:35:18;7.30;99.90
11264;DHT22;5689;48.798;9.070;2023-11-21T05:37:48;7.40;99.90
11264;DHT22;5689;48.798;9.070;2023-11-21T05:40:16;7.40;99.90
11264;DHT22;5689;48.798;9.070;2023-11-21T05:42:44;7.30;99.90
11264;DHT22;5689;48.798;9.070;2023-11-21T05:45:12;7.30;99.90
11264;DHT22;5689;48.798;9.070;2023-11-21T05:47:42;7.20;99.90
11264;DHT22;5689;48.798;9.070;2023-11-21T05:50:11;7.30;99.90
11264;DHT22;5689;48.798;9.070;2023-11-21T05:52:43;7.30;99.90
11264;DHT22;5689;48.798;9.070;2023-11-21T05:55:11;7.40;99.90
11264;DHT22;5689;48.798;9.070;2023-11-21T05:57:41;7.40;99.90
11264;DHT22;5689;48.798;9.070;2023-11-21T06:00:11;7.30;99.90
11264;DHT22;5689;48.798;9.070;2023-11-21T06:02:41;7.40;99.90
11264;DHT22;5689;48.798;9.070;2023-11-21T06:05:10;7.40;99.90
11264;DHT22;5689;48.798;9.070;2023-11-21T06:07:38;7.30;99.90
11264;DHT22;5689;48.798;9.070;2023-11-21T06:10:10;7.20;99.90
11264;DHT22;5689;48.798;9.070;2023-11-21T06:12:39;7.20;99.90
11264;DHT22;5689;48.798;9.070;2023-11-21T06:15:10;7.40;99.90
11264;DHT22;5689;48.798;9.070;2023-11-21T06:17:40;7.50;99.90
11264;DHT22;5689;48.798;9.070;2023-11-21T06:20:10;7.70;99.90
11264;DHT22;5689;48.798;9.070;2023-11-21T06:22:41;7.50;99.90
11264;DHT22;5689;48.798;9.070;2023-11-21T06:25:11;7.50;99.90
11264;DHT22;5689;48.798;9.070;2023-11-21T06:27:41;7.40;99.90
11264;DHT22;5689;48.798;9.070;2023-11-21T06:30:11;7.30;99.90
11264;DHT22;5689;48.798;9.070;2023-11-21T06:32:40;7.30;99.90
11264;DHT22;5689;48.798;9.070;2023-11-21T06:35:08;7.30;99.90
11264;DHT22;5689;48.798;9.070;2023-11-21T06:37:37;7.40;99.90
11264;DHT22;5689;48.798;9.070;2023-11-21T06:40:06;7.50;99.90
11264;DHT22;5689;48.798;9.070;2023-11-21T06:42:36;7.50;99.90
11264;DHT22;5689;48.798;9.070;2023-11-21T06:45:05;7.40;99.90
11264;DHT22;5689;48.798;9.070;2023-11-21T06:47:34;7.40;99.90
11264;DHT22;5689;48.798;9.070;2023-11-21T06:50:02;7.60;99.90
11264;DHT22;5689;48.798;9.070;2023-11-21T06:52:30;7.60;99.90
11264;DHT22;5689;48.798;9.070;2023-11-21T06:54:58;7.70;99.90
11264;DHT22;5689;48.798;9.070;2023-11-21T06:57:26;7.80;99.90
11264;DHT22;5689;48.798;9.070;2023-11-21T06:59:55;7.80;99.90
11264;DHT22;5689;48.798;9.070;2023-11-21T07:02:24;7.70;99.90
11264;DHT22;5689;48.798;9.070;2023-11-21T07:04:52;7.70;99.90
11264;DHT22;5689;48.798;9.070;2023-11-21T07:07:20;7.80;99.90
11264;DHT22;5689;48.798;9.070;2023-11-21T07:09:48;7.80;99.90
11264;DHT22;5689;48.798;9.070;2023-11-21T07:12:16;7.70;99.90
11264;DHT22;5689;48.798;9.070;2023-11-21T07:14:45;7.70;99.90
11264;DHT22;5689;48.798;9.070;2023-11-21T07:17:14;7.70;99.90
11264;DHT22;5689;48.798;9.070;2023-11-21T07:19:44;7.70;99.90
11264;DHT22;5689;48.798;9.070;2023-11-21T07:22:12;7.70;99.90
11264;DHT22;5689;48.798;9.070;2023-11-21T07:24:40;7.70;99.90
11264;DHT22;5689;48.798;9.070;2023-11-21T07:27:08;7.70;99.90
11264;DHT22;5689;48.798;9.070;2023-11-21T07:29:36;7.80;99.90
11264;DHT22;5689;48.798;9.070;2023-11-21T07:32:05;7.80;99.90
11264;DHT22;5689;48.798;9.070;2023-11-21T07:34:34;7.80;99.90
11264;DHT22;5689;48.798;9.070;2023-11-21T07:37:03;7.90;99.90
11264;DHT22;5689;48.798;9.070;2023-11-21T07:39:31;8.00;99.90
11264;DHT22;5689;48.798;9.070;2023-11-21T07:41:59;8.10;99.90
11264;DHT22;5689;48.798;9.070;2023-11-21T07:44:27;8.10;99.90
11264;DHT22;5689;48.798;9.070;2023-11-21T07:46:55;8.20;99.90
11264;DHT22;5689;48.798;9.070;2023-11-21T07:49:24;8.20;99.90
11264;DHT22;5689;48.798;9.070;2023-11-21T07:51:54;8.20;99.90
11264;DHT22;5689;48.798;9.070;2023-11-21T07:54:22;8.20;99.90
11264;DHT22;5689;48.798;9.070;2023-11-21T07:56:50;8.30;99.90
11264;DHT22;5689;48.798;9.070;2023-11-21T07:59:19;8.40;99.90
11264;DHT22;5689;48.798;9.070;2023-11-21T08:01:47;8.50;99.90
11264;DHT22;5689;48.798;9.070;2023-11-21T08:04:16;8.50;99.90
11264;DHT22;5689;48.798;9.070;2023-11-21T08:06:45;8.70;99.90
11264;DHT22;5689;48.798;9.070;2023-11-21T08:09:14;8.80;99.90
11264;DHT22;5689;48.798;9.070;2023-11-21T08:11:44;9.00;99.90
11264;DHT22;5689;48.798;9.070;2023-11-21T08:14:13;9.10;99.90
11264;DHT22;5689;48.798;9.070;2023-11-21T08:16:42;9.50;99.90
11264;DHT22;5689;48.798;9.070;2023-11-21T08:19:11;9.60;99.90
11264;DHT22;5689;48.798;9.070;2023-11-21T08:21:39;9.70;99.90
11264;DHT22;5689;48.798;9.070;2023-11-21T08:24:07;9.80;99.90
11264;DHT22;5689;48.798;9.070;2023-11-21T08:26:38;9.90;99.90
11264;DHT22;5689;48.798;9.070;2023-11-21T08:29:06;9.80;99.90
11264;DHT22;5689;48.798;9.070;2023-11-21T08:31:35;10.00;99.90
11264;DHT22;5689;48.798;9.070;2023-11-21T08:34:04;9.90;99.90
11264;DHT22;5689;48.798;9.070;2023-11-21T08:36:32;10.00;99.90
11264;DHT22;5689;48.798;9.070;2023-11-21T08:39:00;10.30;99.90
11264;DHT22;5689;48.798;9.070;2023-11-21T08:41:28;10.40;99.90
11264;DHT22;5689;48.798;9.070;2023-11-21T08:43:58;10.20;99.90
11264;DHT22;5689;48.798;9.070;2023-11-21T08:46:26;10.00;99.90
11264;DHT22;5689;48.798;9.070;2023-11-21T08:48:54;10.10;99.90
11264;DHT22;5689;48.798;9.070;2023-11-21T08:51:22;10.00;99.90
11264;DHT22;5689;48.798;9.070;2023-11-21T08:53:50;10.00;99.90
11264;DHT22;5689;48.798;9.070;2023-11-21T08:56:19;9.90;99.90
11264;DHT22;5689;48.798;9.070;2023-11-21T08:58:47;9.90;99.90
11264;DHT22;5689;48.798;9.070;2023-11-21T09:01:18;9.90;99.90
11264;DHT22;5689;48.798;9.070;2023-11-21T09:03:46;9.90;99.90
11264;DHT22;5689;48.798;9.070;2023-11-21T09:06:14;9.90;99.90
11264;DHT22;5689;48.798;9.070;2023-11-21T09:08:42;9.80;99.90
11264;DHT22;5689;48.798;9.070;2023-11-21T09:11:10;9.70;99.90
11264;DHT22;5689;48.798;9.070;2023-11-21T09:13:38;9.50;99.90
11264;DHT22;5689;48.798;9.070;2023-11-21T09:16:07;9.40;99.90
11264;DHT22;5689;48.798;9.070;2023-11-21T09:18:36;9.40;99.90
11264;DHT22;5689;48.798;9.070;2023-11-21T09:21:05;9.20;99.90
11264;DHT22;5689;48.798;9.070;2023-11-21T09:23:33;9.20;99.90
11264;DHT22;5689;48.798;9.070;2023-11-21T09:26:01;8.90;99.90
11264;DHT22;5689;48.798;9.070;2023-11-21T09:28:29;8.80;99.90
11264;DHT22;5689;48.798;9.070;2023-11-21T09:30:57;8.90;99.90
11264;DHT22;5689;48.798;9.070;2023-11-21T09:33:25;9.00;99.90
11264;DHT22;5689;48.798;9.070;2023-11-21T09:35:54;8.90;99.90
11264;DHT22;5689;48.798;9.070;2023-11-21T09:38:22;8.70;99.90
11264;DHT22;5689;48.798;9.070;2023-11-21T09:40:50;8.80;99.90
11264;DHT22;5689;48.798;9.070;2023-11-21T09:43:21;8.80;99.90
11264;DHT22;5689;48.798;9.070;2023-11-21T09:45:56;8.80;99.90
11264;DHT22;5689;48.798;9.070;2023-11-21T09:48:26;8.80;99.90
11264;DHT22;5689;48.798;9.070;2023-11-21T09:50:55;8.80;99.90
11264;DHT22;5689;48.798;9.070;2023-11-21T09:53:25;8.80;99.90
11264;DHT22;5689;48.798;9.070;2023-11-21T09:55:54;8.90;99.90
11264;DHT22;5689;48.798;9.070;2023-11-21T09:58:23;8.80;99.90
11264;DHT22;5689;48.798;9.070;2023-11-21T10:00:53;8.80;99.90
11264;DHT22;5689;48.798;9.070;2023-11-21T10:03:23;8.80;99.90
11264;DHT22;5689;48.798;9.070;2023-11-21T10:05:55;8.80;99.90
11264;DHT22;5689;48.798;9.070;2023-11-21T10:08:27;8.80;99.90
11264;DHT22;5689;48.798;9.070;2023-11-21T10:10:59;8.90;99.90
11264;DHT22;5689;48.798;9.070;2023-11-21T10:13:29;9.10;99.90
11264;DHT22;5689;48.798;9.070;2023-11-21T10:15:58;9.00;99.90
11264;DHT22;5689;48.798;9.070;2023-11-21T10:18:26;9.20;99.90
11264;DHT22;5689;48.798;9.070;2023-11-21T10:20:56;8.90;99.90
11264;DHT22;5689;48.798;9.070;2023-11-21T10:23:24;9.00;99.90
11264;DHT22;5689;48.798;9.070;2023-11-21T10:25:53;8.80;99.90
11264;DHT22;5689;48.798;9.070;2023-11-21T10:28:21;8.90;99.90
11264;DHT22;5689;48.798;9.070;2023-11-21T10:30:50;8.80;99.90
11264;DHT22;5689;48.798;9.070;2023-11-21T10:33:27;8.90;99.90
11264;DHT22;5689;48.798;9.070;2023-11-21T10:35:56;9.00;99.90
11264;DHT22;5689;48.798;9.070;2023-11-21T10:38:24;9.00;99.90
11264;DHT22;5689;48.798;9.070;2023-11-21T10:40:54;9.00;99.90
11264;DHT22;5689;48.798;9.070;2023-11-21T10:43:25;8.90;99.90
11264;DHT22;5689;48.798;9.070;2023-11-21T10:45:57;9.00;99.90
11264;DHT22;5689;48.798;9.070;2023-11-21T10:48:25;9.00;99.90
11264;DHT22;5689;48.798;9.070;2023-11-21T10:50:54;8.90;99.90
11264;DHT22;5689;48.798;9.070;2023-11-21T10:53:28;9.10;99.90
11264;DHT22;5689;48.798;9.070;2023-11-21T10:56:02;9.20;99.90
11264;DHT22;5689;48.798;9.070;2023-11-21T10:58:33;9.10;99.90
11264;DHT22;5689;48.798;9.070;2023-11-21T11:01:06;9.00;99.90
11264;DHT22;5689;48.798;9.070;2023-11-21T11:03:36;9.00;99.90
11264;DHT22;5689;48.798;9.070;2023-11-21T11:06:05;9.10;99.90
11264;DHT22;5689;48.798;9.070;2023-11-21T11:08:39;9.10;99.90
11264;DHT22;5689;48.798;9.070;2023-11-21T11:11:10;9.10;99.90
11264;DHT22;5689;48.798;9.070;2023-11-21T11:13:43;9.20;99.90
11264;DHT22;5689;48.798;9.070;2023-11-21T11:16:12;9.30;99.90
11264;DHT22;5689;48.798;9.070;2023-11-21T11:18:43;9.70;99.90
11264;DHT22;5689;48.798;9.070;2023-11-21T11:21:23;9.70;99.90
11264;DHT22;5689;48.798;9.070;2023-11-21T11:24:05;10.00;99.90
11264;DHT22;5689;48.798;9.070;2023-11-21T11:26:44;9.90;99.90
11264;DHT22;5689;48.798;9.070;2023-11-21T11:29:21;10.00;99.90
11264;DHT22;5689;48.798;9.070;2023-11-21T11:32:01;10.00;99.90
11264;DHT22;5689;48.798;9.070;2023-11-21T11:34:34;10.10;99.90
11264;DHT22;5689;48.798;9.070;2023-11-21T11:37:06;10.20;99.90
11264;DHT22;5689;48.798;9.070;2023-11-21T11:39:38;10.30;99.90
11264;DHT22;5689;48.798;9.070;2023-11-21T11:42:12;10.30;99.90
11264;DHT22;5689;48.798;9.070;2023-11-21T11:44:51;10.50;99.90
11264;DHT22;5689;48.798;9.070;2023-11-21T11:47:24;11.00;99.90
11264;DHT22;5689;48.798;9.070;2023-11-21T11:50:01;11.60;99.90
11264;DHT22;5689;48.798;9.070;2023-11-21T11:52:35;11.50;99.90
11264;DHT22;5689;48.798;9.070;2023-11-21T11:55:06;11.00;99.90
11264;DHT22;5689;48.798;9.070;2023-11-21T11:57:37;10.80;99.90
11264;DHT22;5689;48.798;9.070;2023-11-21T12:00:10;10.50;99.90
11264;DHT22;5689;48.798;9.070;2023-11-21T12:02:44;10.40;99.90
11264;DHT22;5689;48.798;9.070;2023-11-21T12:05:14;9.80;99.90
11264;DHT22;5689;48.798;9.070;2023-11-21T12:07:48;9.40;99.90
11264;DHT22;5689;48.798;9.070;2023-11-21T12:10:19;9.20;99.90
11264;DHT22;5689;48.798;9.070;2023-11-21T12:12:48;9.00;99.90
11264;DHT22;5689;48.798;9.070;2023-11-21T12:15:17;9.00;99.90
11264;DHT22;5689;48.798;9.070;2023-11-21T12:17:46;9.00;99.90
11264;DHT22;5689;48.798;9.070;2023-11-21T12:20:15;9.20;99.90
11264;DHT22;5689;48.798;9.070;2023-11-21T12:22:47;9.10;99.90
11264;DHT22;5689;48.798;9.070;2023-11-21T12:25:20;9.20;99.90
11264;DHT22;5689;48.798;9.070;2023-11-21T12:27:49;9.40;99.90
11264;DHT22;5689;48.798;9.070;2023-11-21T12:30:19;9.50;99.90
11264;DHT22;5689;48.798;9.070;2023-11-21T12:32:50;9.40;99.90
11264;DHT22;5689;48.798;9.070;2023-11-21T12:35:19;9.50;99.90
11264;DHT22;5689;48.798;9.070;2023-11-21T12:37:48;9.50;99.90
11264;DHT22;5689;48.798;9.070;2023-11-21T12:40:19;9.70;99.90
11264;DHT22;5689;48.798;9.070;2023-11-21T12:42:52;9.70;99.90
11264;DHT22;5689;48.798;9.070;2023-11-21T12:45:22;9.80;99.90
11264;DHT22;5689;48.798;9.070;2023-11-21T12:47:54;9.80;99.90
11264;DHT22;5689;48.798;9.070;2023-11-21T12:50:25;9.80;99.90
11264;DHT22;5689;48.798;9.070;2023-11-21T12:52:58;9.90;99.90
11264;DHT22;5689;48.798;9.070;2023-11-21T12:55:30;10.00;99.90
11264;DHT22;5689;48.798;9.070;2023-11-21T12:58:02;10.20;99.90
11264;DHT22;5689;48.798;9.070;2023-11-21T13:00:36;10.00;99.90
11264;DHT22;5689;48.798;9.070;2023-11-21T13:03:06;10.00;99.90
11264;DHT22;5689;48.798;9.070;2023-11-21T13:05:35;9.90;99.90
11264;DHT22;5689;48.798;9.070;2023-11-21T13:08:07;9.40;99.90
11264;DHT22;5689;48.798;9.070;2023-11-21T13:10:39;9.10;99.90
11264;DHT22;5689;48.798;9.070;2023-11-21T13:13:10;9.00;99.90
11264;DHT22;5689;48.798;9.070;2023-11-21T13:15:48;8.80;99.90
11264;DHT22;5689;48.798;9.070;2023-11-21T13:18:16;8.70;99.90
11264;DHT22;5689;48.798;9.070;2023-11-21T13:20:44;8.70;99.90
11264;DHT22;5689;48.798;9.070;2023-11-21T13:23:13;8.80;99.90
11264;DHT22;5689;48.798;9.070;2023-11-21T13:25:44;8.90;99.90
11264;DHT22;5689;48.798;9.070;2023-11-21T13:28:16;8.80;99.90
11264;DHT22;5689;48.798;9.070;2023-11-21T13:30:45;8.90;99.90
11264;DHT22;5689;48.798;9.070;2023-11-21T13:33:14;8.90;99.90
11264;DHT22;5689;48.798;9.070;2023-11-21T13:35:45;8.90;99.90
11264;DHT22;5689;48.798;9.070;2023-11-21T13:38:16;8.90;99.90
11264;DHT22;5689;48.798;9.070;2023-11-21T13:40:47;8.90;99.90
11264;DHT22;5689;48.798;9.070;2023-11-21T13:43:17;9.00;99.90
11264;DHT22;5689;48.798;9.070;2023-11-21T13:45:48;9.10;99.90
11264;DHT22;5689;48.798;9.070;2023-11-21T13:48:18;9.00;99.90
11264;DHT22;5689;48.798;9.070;2023-11-21T13:50:54;8.80;99.90
11264;DHT22;5689;48.798;9.070;2023-11-21T13:53:25;8.90;99.90
11264;DHT22;5689;48.798;9.070;2023-11-21T13:55:54;8.90;99.90
11264;DHT22;5689;48.798;9.070;2023-11-21T13:58:24;9.00;99.90
11264;DHT22;5689;48.798;9.070;2023-11-21T14:01:06;9.10;99.90
11264;DHT22;5689;48.798;9.070;2023-11-21T14:03:43;9.10;99.90
11264;DHT22;5689;48.798;9.070;2023-11-21T14:06:18;9.10;99.90
11264;DHT22;5689;48.798;9.070;2023-11-21T14:08:52;9.20;99.90
11264;DHT22;5689;48.798;9.070;2023-11-21T14:11:24;9.20;99.90
11264;DHT22;5689;48.798;9.070;2023-11-21T14:13:54;9.40;99.90
11264;DHT22;5689;48.798;9.070;2023-11-21T14:16:22;9.50;99.90
11264;DHT22;5689;48.798;9.070;2023-11-21T14:18:49;9.40;99.90
11264;DHT22;5689;48.798;9.070;2023-11-21T14:21:22;9.30;99.90
11264;DHT22;5689;48.798;9.070;2023-11-21T14:23:50;9.30;99.90
11264;DHT22;5689;48.798;9.070;2023-11-21T14:26:18;9.30;99.90
11264;DHT22;5689;48.798;9.070;2023-11-21T14:28:48;9.40;99.90
11264;DHT22;5689;48.798;9.070;2023-11-21T14:31:17;9.30;99.90
11264;DHT22;5689;48.798;9.070;2023-11-21T14:33:45;9.30;99.90
11264;DHT22;5689;48.798;9.070;2023-11-21T14:36:13;9.20;99.90
11264;DHT22;5689;48.798;9.070;2023-11-21T14:38:43;9.20;99.90
11264;DHT22;5689;48.798;9.070;2023-11-21T14:41:11;9.30;99.90
11264;DHT22;5689;48.798;9.070;2023-11-21T14:43:41;9.30;99.90
11264;DHT22;5689;48.798;9.070;2023-11-21T14:46:11;9.30;99.90
11264;DHT22;5689;48.798;9.070;2023-11-21T14:48:42;9.30;99.90
11264;DHT22;5689;48.798;9.070;2023-11-21T14:51:14;9.30;99.90
11264;DHT22;5689;48.798;9.070;2023-11-21T14:53:57;9.20;99.90
11264;DHT22;5689;48.798;9.070;2023-11-21T14:56:32;9.10;99.90
11264;DHT22;5689;48.798;9.070;2023-11-21T14:59:01;9.10;99.90
11264;DHT22;5689;48.798;9.070;2023-11-21T15:01:35;9.10;99.90
11264;DHT22;5689;48.798;9.070;2023-11-21T15:04:12;9.10;99.90
11264;DHT22;5689;48.798;9.070;2023-11-21T15:06:47;9.20;99.90
11264;DHT22;5689;48.798;9.070;2023-11-21T15:09:15;9.20;99.90
11264;DHT22;5689;48.798;9.070;2023-11-21T15:12:01;9.10;99.90
11264;DHT22;5689;48.798;9.070;2023-11-21T15:14:42;8.80;99.90
11264;DHT22;5689;48.798;9.070;2023-11-21T15:17:11;8.60;99.90
11264;DHT22;5689;48.798;9.070;2023-11-21T15:19:42;8.40;99.90
11264;DHT22;5689;48.798;9.070;2023-11-21T15:22:10;8.40;99.90
11264;DHT22;5689;48.798;9.070;2023-11-21T15:24:41;8.40;99.90
11264;DHT22;5689;48.798;9.070;2023-11-21T15:27:13;8.40;99.90
11264;DHT22;5689;48.798;9.070;2023-11-21T15:29:42;8.40;99.90
11264;DHT22;5689;48.798;9.070;2023-11-21T15:32:12;8.40;99.90
11264;DHT22;5689;48.798;9.070;2023-11-21T15:34:40;8.40;99.90
11264;DHT22;5689;48.798;9.070;2023-11-21T15:37:08;8.50;99.90
11264;DHT22;5689;48.798;9.070;2023-11-21T15:39:38;8.50;99.90
11264;DHT22;5689;48.798;9.070;2023-11-21T15:42:06;8.40;99.90
11264;DHT22;5689;48.798;9.070;2023-11-21T15:44:36;8.40;99.90
11264;DHT22;5689;48.798;9.070;2023-11-21T15:47:05;8.50;99.90
11264;DHT22;5689;48.798;9.070;2023-11-21T15:49:37;8.40;99.90
11264;DHT22;5689;48.798;9.070;2023-11-21T15:52:05;8.40;99.90
11264;DHT22;5689;48.798;9.070;2023-11-21T15:54:37;8.30;99.90
11264;DHT22;5689;48.798;9.070;2023-11-21T15:57:07;8.30;99.90
11264;DHT22;5689;48.798;9.070;2023-11-21T15:59:39;8.30;99.90
11264;DHT22;5689;48.798;9.070;2023-11-21T16:02:09;8.30;99.90
11264;DHT22;5689;48.798;9.070;2023-11-21T16:04:39;8.40;99.90
11264;DHT22;5689;48.798;9.070;2023-11-21T16:07:07;8.40;99.90
11264;DHT22;5689;48.798;9.070;2023-11-21T16:09:36;8.30;99.90
11264;DHT22;5689;48.798;9.070;2023-11-21T16:12:06;8.40;99.90
11264;DHT22;5689;48.798;9.070;2023-11-21T16:14:37;8.50;99.90
11264;DHT22;5689;48.798;9.070;2023-11-21T16:17:08;8.50;99.90
11264;DHT22;5689;48.798;9.070;2023-11-21T16:19:39;8.50;99.90